createdAt,value
2022-10-20T00:00:19.840Z,1023.48
2022-10-20T00:01:20.731Z,1023.42
2022-10-20T00:02:19.757Z,1023.40
2022-10-20T00:03:19.700Z,1023.38
2022-10-20T00:04:19.706Z,1023.37
2022-10-20T00:05:19.652Z,1023.35
2022-10-20T00:06:19.642Z,1023.34
2022-10-20T00:07:19.643Z,1023.34
2022-10-20T00:08:19.657Z,1023.33
2022-10-20T00:09:19.624Z,1023.29
2022-10-20T00:10:19.614Z,1023.26
2022-10-20T00:11:19.639Z,1023.26
2022-10-20T00:12:19.581Z,1023.28
2022-10-20T00:13:19.613Z,1023.26
2022-10-20T00:14:19.585Z,1023.21
2022-10-20T00:15:19.543Z,1023.16
2022-10-20T00:16:19.566Z,1023.16
2022-10-20T00:17:19.525Z,1023.18
2022-10-20T00:18:19.508Z,1023.13
2022-10-20T00:19:19.541Z,1023.16
2022-10-20T00:20:19.514Z,1023.07
2022-10-20T00:21:19.486Z,1023.09
2022-10-20T00:22:19.482Z,1023.13
2022-10-20T00:23:20.411Z,1023.11
2022-10-20T00:24:19.475Z,1023.06
2022-10-20T00:25:19.449Z,1023.09
2022-10-20T00:26:19.434Z,1023.08
2022-10-20T00:27:19.434Z,1023.10
2022-10-20T00:28:19.436Z,1023.01
2022-10-20T00:29:19.431Z,1022.96
2022-10-20T00:30:21.408Z,1023.01
2022-10-20T00:31:19.465Z,1022.96
2022-10-20T00:32:19.350Z,1022.99
2022-10-20T00:33:19.400Z,1022.95
2022-10-20T00:34:19.408Z,1022.91
2022-10-20T00:35:19.362Z,1022.84
2022-10-20T00:36:19.307Z,1022.84
2022-10-20T00:37:19.323Z,1022.83
2022-10-20T00:39:19.316Z,1022.78
2022-10-20T00:40:19.306Z,1022.75
2022-10-20T00:41:19.260Z,1022.72
2022-10-20T00:42:19.240Z,1022.73
2022-10-20T00:43:21.072Z,1022.67
2022-10-20T00:44:19.298Z,1022.68
2022-10-20T00:45:19.208Z,1022.61
2022-10-20T00:46:19.196Z,1022.59
2022-10-20T00:47:19.207Z,1022.61
2022-10-20T00:48:19.169Z,1022.59
2022-10-20T00:49:19.190Z,1022.55
2022-10-20T00:50:19.250Z,1022.55
2022-10-20T00:51:19.149Z,1022.56
2022-10-20T00:52:19.141Z,1022.57
2022-10-20T00:53:19.114Z,1022.60
2022-10-20T00:54:19.148Z,1022.59
2022-10-20T00:55:19.123Z,1022.61
2022-10-20T00:56:19.086Z,1022.60
2022-10-20T00:57:19.120Z,1022.61
2022-10-20T00:58:19.118Z,1022.60
2022-10-20T00:59:19.087Z,1022.56
2022-10-20T01:00:19.058Z,1022.53
2022-10-20T01:01:19.100Z,1022.54
2022-10-20T01:02:19.152Z,1022.49
2022-10-20T01:03:19.004Z,1022.51
2022-10-20T01:04:19.003Z,1022.44
2022-10-20T01:05:19.051Z,1022.43
2022-10-20T01:06:18.978Z,1022.40
2022-10-20T01:07:18.974Z,1022.38
2022-10-20T01:08:19.017Z,1022.42
2022-10-20T01:09:18.997Z,1022.39
2022-10-20T01:10:18.996Z,1022.36
2022-10-20T01:11:18.917Z,1022.38
2022-10-20T01:12:18.910Z,1022.27
2022-10-20T01:13:18.955Z,1022.32
2022-10-20T01:14:18.927Z,1022.32
2022-10-20T01:15:18.923Z,1022.25
2022-10-20T01:16:18.863Z,1022.26
2022-10-20T01:17:18.869Z,1022.15
2022-10-20T01:18:18.888Z,1022.19
2022-10-20T01:19:18.834Z,1022.15
2022-10-20T01:20:18.832Z,1022.12
2022-10-20T01:21:18.843Z,1022.13
2022-10-20T01:22:18.793Z,1022.19
2022-10-20T01:23:18.824Z,1022.14
2022-10-20T01:24:18.862Z,1022.19
2022-10-20T01:25:18.804Z,1022.18
2022-10-20T01:26:18.747Z,1022.14
2022-10-20T01:27:18.745Z,1022.20
2022-10-20T01:28:18.763Z,1022.23
2022-10-20T01:29:18.718Z,1022.16
2022-10-20T01:30:18.751Z,1022.11
2022-10-20T01:31:18.708Z,1022.11
2022-10-20T01:32:18.709Z,1022.10
2022-10-20T01:33:18.813Z,1022.12
2022-10-20T01:34:18.707Z,1022.11
2022-10-20T01:35:18.664Z,1022.09
2022-10-20T01:36:18.649Z,1022.07
2022-10-20T01:37:28.350Z,1022.09
2022-10-20T01:38:18.636Z,1022.04
2022-10-20T01:39:18.681Z,1022.02
2022-10-20T01:40:18.585Z,1022.05
2022-10-20T01:41:18.619Z,1022.03
2022-10-20T01:42:18.578Z,1022.04
2022-10-20T01:43:18.568Z,1022.02
2022-10-20T01:44:19.538Z,1021.98
2022-10-20T01:45:18.562Z,1021.98
2022-10-20T01:46:18.564Z,1021.92
2022-10-20T01:47:18.556Z,1021.90
2022-10-20T01:48:18.573Z,1021.80
2022-10-20T01:49:18.498Z,1021.81
2022-10-20T01:50:18.515Z,1021.78
2022-10-20T01:51:18.488Z,1021.78
2022-10-20T01:52:18.494Z,1021.70
2022-10-20T01:53:18.458Z,1021.78
2022-10-20T01:54:18.458Z,1021.65
2022-10-20T01:55:18.471Z,1021.66
2022-10-20T01:56:18.422Z,1021.60
2022-10-20T01:57:18.466Z,1021.59
2022-10-20T01:58:18.399Z,1021.55
2022-10-20T01:59:18.384Z,1021.54
2022-10-20T02:00:18.366Z,1021.59
2022-10-20T02:01:18.460Z,1021.58
2022-10-20T02:02:18.350Z,1021.53
2022-10-20T02:03:18.417Z,1021.56
2022-10-20T02:04:18.329Z,1021.53
2022-10-20T02:05:18.316Z,1021.49
2022-10-20T02:06:18.301Z,1021.50
2022-10-20T02:07:18.295Z,1021.44
2022-10-20T02:08:18.336Z,1021.42
2022-10-20T02:09:18.298Z,1021.41
2022-10-20T02:10:18.261Z,1021.43
2022-10-20T02:11:18.249Z,1021.45
2022-10-20T02:12:18.243Z,1021.41
2022-10-20T02:13:18.321Z,1021.39
2022-10-20T02:14:18.285Z,1021.36
2022-10-20T02:15:18.208Z,1021.38
2022-10-20T02:16:18.206Z,1021.35
2022-10-20T02:17:18.195Z,1021.36
2022-10-20T02:18:18.201Z,1021.29
2022-10-20T02:19:18.157Z,1021.28
2022-10-20T02:20:18.172Z,1021.25
2022-10-20T02:21:18.884Z,1021.27
2022-10-20T02:22:18.126Z,1021.25
2022-10-20T02:23:18.157Z,1021.21
2022-10-20T02:24:18.105Z,1021.24
2022-10-20T02:25:18.111Z,1021.21
2022-10-20T02:26:18.106Z,1021.20
2022-10-20T02:27:18.079Z,1021.18
2022-10-20T02:28:18.099Z,1021.17
2022-10-20T02:29:18.086Z,1021.18
2022-10-20T02:30:18.032Z,1021.15
2022-10-20T02:31:18.073Z,1021.12
2022-10-20T02:32:18.023Z,1021.18
2022-10-20T02:33:18.043Z,1021.08
2022-10-20T02:34:18.054Z,1021.19
2022-10-20T02:35:17.992Z,1021.17
2022-10-20T02:36:18.025Z,1021.12
2022-10-20T02:37:18.566Z,1021.11
2022-10-20T02:38:18.196Z,1021.17
2022-10-20T02:39:17.975Z,1021.15
2022-10-20T02:40:17.933Z,1021.14
2022-10-20T02:41:17.915Z,1021.13
2022-10-20T02:42:17.905Z,1021.09
2022-10-20T02:43:17.898Z,1021.04
2022-10-20T02:44:17.966Z,1021.00
2022-10-20T02:45:17.908Z,1021.07
2022-10-20T02:46:17.886Z,1021.10
2022-10-20T02:47:17.854Z,1021.02
2022-10-20T02:48:18.086Z,1020.96
2022-10-20T02:49:17.837Z,1020.97
2022-10-20T02:50:17.875Z,1020.91
2022-10-20T02:51:17.809Z,1020.88
2022-10-20T02:52:17.786Z,1020.89
2022-10-20T02:53:17.780Z,1020.88
2022-10-20T02:54:17.770Z,1020.91
2022-10-20T02:56:17.765Z,1020.88
2022-10-20T02:57:17.755Z,1020.87
2022-10-20T02:58:17.759Z,1020.82
2022-10-20T02:59:18.032Z,1020.81
2022-10-20T03:00:17.706Z,1020.80
2022-10-20T03:01:17.743Z,1020.78
2022-10-20T03:02:17.765Z,1020.75
2022-10-20T03:03:17.668Z,1020.77
2022-10-20T03:04:17.756Z,1020.72
2022-10-20T03:05:17.686Z,1020.72
2022-10-20T03:06:17.642Z,1020.79
2022-10-20T03:07:17.621Z,1020.75
2022-10-20T03:08:18.517Z,1020.74
2022-10-20T03:09:17.616Z,1020.71
2022-10-20T03:10:17.600Z,1020.68
2022-10-20T03:11:17.651Z,1020.65
2022-10-20T03:12:17.570Z,1020.58
2022-10-20T03:13:17.615Z,1020.60
2022-10-20T03:14:17.553Z,1020.57
2022-10-20T03:15:17.618Z,1020.51
2022-10-20T03:16:17.576Z,1020.48
2022-10-20T03:17:17.517Z,1020.46
2022-10-20T03:18:17.504Z,1020.38
2022-10-20T03:19:17.505Z,1020.36
2022-10-20T03:20:17.499Z,1020.36
2022-10-20T03:21:17.517Z,1020.33
2022-10-20T03:22:17.501Z,1020.34
2022-10-20T03:23:19.980Z,1020.32
2022-10-20T03:24:17.472Z,1020.37
2022-10-20T03:25:17.462Z,1020.33
2022-10-20T03:26:17.444Z,1020.36
2022-10-20T03:27:17.446Z,1020.31
2022-10-20T03:28:17.429Z,1020.43
2022-10-20T03:29:17.373Z,1020.35
2022-10-20T03:30:17.414Z,1020.34
2022-10-20T03:31:17.359Z,1020.33
2022-10-20T03:32:17.351Z,1020.34
2022-10-20T03:33:17.355Z,1020.30
2022-10-20T03:34:17.370Z,1020.30
2022-10-20T03:35:17.350Z,1020.26
2022-10-20T03:36:17.309Z,1020.30
2022-10-20T03:37:17.327Z,1020.32
2022-10-20T03:38:17.297Z,1020.30
2022-10-20T03:39:17.270Z,1020.33
2022-10-20T03:40:17.263Z,1020.27
2022-10-20T03:41:17.285Z,1020.26
2022-10-20T03:42:17.233Z,1020.27
2022-10-20T03:43:17.228Z,1020.27
2022-10-20T03:44:17.213Z,1020.24
2022-10-20T03:45:18.642Z,1020.28
2022-10-20T03:46:17.236Z,1020.25
2022-10-20T03:47:17.176Z,1020.24
2022-10-20T03:48:17.173Z,1020.23
2022-10-20T03:49:17.159Z,1020.20
2022-10-20T03:50:17.176Z,1020.13
2022-10-20T03:51:17.188Z,1020.17
2022-10-20T03:52:17.123Z,1020.07
2022-10-20T03:53:17.113Z,1020.08
2022-10-20T03:54:17.098Z,1020.02
2022-10-20T03:55:17.092Z,1019.95
2022-10-20T03:56:17.113Z,1019.98
2022-10-20T03:57:17.060Z,1019.94
2022-10-20T03:58:17.087Z,1019.93
2022-10-20T03:59:17.044Z,1019.97
2022-10-20T04:00:17.040Z,1019.87
2022-10-20T04:01:17.091Z,1019.87
2022-10-20T04:02:17.181Z,1019.88
2022-10-20T04:03:16.997Z,1019.89
2022-10-20T04:04:16.991Z,1019.88
2022-10-20T04:05:16.976Z,1019.82
2022-10-20T04:06:16.974Z,1019.80
2022-10-20T04:07:16.986Z,1019.76
2022-10-20T04:08:16.996Z,1019.77
2022-10-20T04:09:16.948Z,1019.74
2022-10-20T04:10:17.871Z,1019.78
2022-10-20T04:11:16.917Z,1019.74
2022-10-20T04:12:16.938Z,1019.75
2022-10-20T04:13:16.929Z,1019.80
2022-10-20T04:14:16.918Z,1019.76
2022-10-20T04:15:16.906Z,1019.75
2022-10-20T04:16:16.866Z,1019.63
2022-10-20T04:17:16.880Z,1019.62
2022-10-20T04:18:44.037Z,1019.61
2022-10-20T04:19:16.818Z,1019.55
2022-10-20T04:20:16.854Z,1019.54
2022-10-20T04:21:16.809Z,1019.50
2022-10-20T04:22:16.826Z,1019.50
2022-10-20T04:23:16.787Z,1019.51
2022-10-20T04:24:16.772Z,1019.45
2022-10-20T04:25:16.757Z,1019.40
2022-10-20T04:26:16.766Z,1019.39
2022-10-20T04:27:16.766Z,1019.38
2022-10-20T04:28:16.760Z,1019.32
2022-10-20T04:29:16.710Z,1019.29
2022-10-20T04:30:16.741Z,1019.35
2022-10-20T04:31:16.684Z,1019.26
2022-10-20T04:32:16.686Z,1019.34
2022-10-20T04:33:16.730Z,1019.24
2022-10-20T04:34:16.669Z,1019.24
2022-10-20T04:35:16.677Z,1019.23
2022-10-20T04:36:16.641Z,1019.18
2022-10-20T04:37:16.625Z,1019.19
2022-10-20T04:38:17.580Z,1019.24
2022-10-20T04:39:16.640Z,1019.27
2022-10-20T04:40:16.594Z,1019.29
2022-10-20T04:41:16.578Z,1019.20
2022-10-20T04:42:16.571Z,1019.15
2022-10-20T04:43:16.592Z,1019.07
2022-10-20T04:44:16.571Z,1019.10
2022-10-20T04:45:16.558Z,1018.98
2022-10-20T04:46:16.606Z,1018.99
2022-10-20T04:47:17.507Z,1018.93
2022-10-20T04:48:16.535Z,1018.89
2022-10-20T04:49:16.494Z,1018.81
2022-10-20T04:50:16.513Z,1018.91
2022-10-20T04:51:16.567Z,1018.86
2022-10-20T04:52:16.454Z,1018.81
2022-10-20T04:53:16.460Z,1018.84
2022-10-20T04:54:16.477Z,1018.87
2022-10-20T04:55:16.561Z,1018.78
2022-10-20T04:56:16.522Z,1018.82
2022-10-20T04:57:16.476Z,1018.76
2022-10-20T04:58:17.395Z,1018.86
2022-10-20T04:59:16.450Z,1018.86
2022-10-20T05:00:16.391Z,1018.92
2022-10-20T05:01:16.449Z,1018.88
2022-10-20T05:02:16.566Z,1018.87
2022-10-20T05:03:16.371Z,1018.93
2022-10-20T05:04:16.325Z,1018.93
2022-10-20T05:05:16.359Z,1018.86
2022-10-20T05:06:16.308Z,1018.85
2022-10-20T05:07:16.330Z,1018.86
2022-10-20T05:08:16.335Z,1018.78
2022-10-20T05:09:16.434Z,1018.76
2022-10-20T05:10:16.290Z,1018.70
2022-10-20T05:11:16.273Z,1018.71
2022-10-20T05:12:16.253Z,1018.65
2022-10-20T05:13:16.222Z,1018.62
2022-10-20T05:14:16.276Z,1018.66
2022-10-20T05:15:16.242Z,1018.66
2022-10-20T05:16:16.192Z,1018.61
2022-10-20T05:17:16.172Z,1018.67
2022-10-20T05:18:16.170Z,1018.67
2022-10-20T05:19:16.158Z,1018.62
2022-10-20T05:20:16.151Z,1018.64
2022-10-20T05:21:16.164Z,1018.65
2022-10-20T05:22:16.173Z,1018.61
2022-10-20T05:23:16.117Z,1018.63
2022-10-20T05:24:19.808Z,1018.61
2022-10-20T05:25:35.619Z,1018.57
2022-10-20T05:26:16.108Z,1018.54
2022-10-20T05:27:16.060Z,1018.50
2022-10-20T05:28:22.331Z,1018.54
2022-10-20T05:29:22.560Z,1018.49
2022-10-20T05:30:22.499Z,1018.43
2022-10-20T05:31:16.049Z,1018.45
2022-10-20T05:32:16.021Z,1018.44
2022-10-20T05:33:16.023Z,1018.46
2022-10-20T05:34:16.022Z,1018.36
2022-10-20T05:35:15.983Z,1018.40
2022-10-20T05:36:19.343Z,1018.33
2022-10-20T05:37:15.998Z,1018.35
2022-10-20T05:38:15.947Z,1018.37
2022-10-20T05:39:15.940Z,1018.36
2022-10-20T05:40:15.968Z,1018.38
2022-10-20T05:41:15.960Z,1018.37
2022-10-20T05:42:15.905Z,1018.37
2022-10-20T05:43:17.263Z,1018.39
2022-10-20T05:44:15.875Z,1018.38
2022-10-20T05:45:15.862Z,1018.40
2022-10-20T05:46:15.927Z,1018.40
2022-10-20T05:47:15.882Z,1018.41
2022-10-20T05:48:15.855Z,1018.32
2022-10-20T05:49:15.978Z,1018.38
2022-10-20T05:50:15.838Z,1018.40
2022-10-20T05:51:15.849Z,1018.38
2022-10-20T05:52:15.864Z,1018.37
2022-10-20T05:53:16.104Z,1018.33
2022-10-20T05:54:15.765Z,1018.28
2022-10-20T05:55:15.753Z,1018.29
2022-10-20T05:56:15.815Z,1018.32
2022-10-20T05:57:15.799Z,1018.35
2022-10-20T05:58:19.638Z,1018.38
2022-10-20T05:59:15.737Z,1018.37
2022-10-20T06:00:15.767Z,1018.36
2022-10-20T06:01:15.709Z,1018.32
2022-10-20T06:02:15.685Z,1018.28
2022-10-20T06:03:17.569Z,1018.34
2022-10-20T06:04:15.723Z,1018.35
2022-10-20T06:05:15.697Z,1018.32
2022-10-20T06:06:15.626Z,1018.37
2022-10-20T06:07:15.623Z,1018.38
2022-10-20T06:08:15.618Z,1018.34
2022-10-20T06:09:15.602Z,1018.38
2022-10-20T06:10:15.628Z,1018.36
2022-10-20T06:11:15.617Z,1018.41
2022-10-20T06:12:15.631Z,1018.36
2022-10-20T06:13:15.561Z,1018.31
2022-10-20T06:14:15.549Z,1018.30
2022-10-20T06:15:15.567Z,1018.33
2022-10-20T06:16:15.538Z,1018.36
2022-10-20T06:17:15.508Z,1018.25
2022-10-20T06:18:15.506Z,1018.28
2022-10-20T06:19:15.517Z,1018.26
2022-10-20T06:20:15.487Z,1018.23
2022-10-20T06:21:17.097Z,1018.23
2022-10-20T06:22:15.503Z,1018.18
2022-10-20T06:23:16.094Z,1018.30
2022-10-20T06:24:15.433Z,1018.27
2022-10-20T06:25:15.426Z,1018.29
2022-10-20T06:26:15.453Z,1018.17
2022-10-20T06:27:15.443Z,1018.27
2022-10-20T06:28:15.408Z,1018.34
2022-10-20T06:29:15.375Z,1018.26
2022-10-20T06:30:15.370Z,1018.32
2022-10-20T06:31:15.390Z,1018.21
2022-10-20T06:32:15.353Z,1018.23
2022-10-20T06:33:15.332Z,1018.17
2022-10-20T06:34:16.064Z,1018.18
2022-10-20T06:35:15.346Z,1018.15
2022-10-20T06:36:15.313Z,1018.17
2022-10-20T06:37:15.294Z,1018.02
2022-10-20T06:38:15.277Z,1018.08
2022-10-20T06:39:15.324Z,1018.05
2022-10-20T06:40:15.298Z,1018.00
2022-10-20T06:41:15.252Z,1018.05
2022-10-20T06:42:15.242Z,1017.96
2022-10-20T06:43:15.223Z,1017.94
2022-10-20T06:44:15.245Z,1017.99
2022-10-20T06:45:17.047Z,1018.01
2022-10-20T06:46:16.068Z,1018.04
2022-10-20T06:47:15.182Z,1018.06
2022-10-20T06:48:15.162Z,1017.95
2022-10-20T06:49:15.159Z,1017.93
2022-10-20T06:50:15.155Z,1017.93
2022-10-20T06:51:15.172Z,1017.91
2022-10-20T06:52:15.153Z,1017.89
2022-10-20T06:53:15.112Z,1017.84
2022-10-20T06:54:15.095Z,1017.89
2022-10-20T06:55:15.079Z,1017.87
2022-10-20T06:56:15.109Z,1017.84
2022-10-20T06:57:15.059Z,1017.91
2022-10-20T06:58:15.059Z,1017.88
2022-10-20T06:59:15.073Z,1017.88
2022-10-20T07:00:15.156Z,1017.91
2022-10-20T07:01:15.339Z,1017.88
2022-10-20T07:02:15.067Z,1017.85
2022-10-20T07:03:15.545Z,1017.79
2022-10-20T07:04:15.035Z,1017.76
2022-10-20T07:05:14.980Z,1017.74
2022-10-20T07:06:15.004Z,1017.70
2022-10-20T07:07:14.983Z,1017.71
2022-10-20T07:08:14.939Z,1017.66
2022-10-20T07:09:15.269Z,1017.76
2022-10-20T07:10:14.936Z,1017.70
2022-10-20T07:11:14.943Z,1017.76
2022-10-20T07:12:14.950Z,1017.76
2022-10-20T07:13:14.883Z,1017.69
2022-10-20T07:14:14.867Z,1017.70
2022-10-20T07:15:15.548Z,1017.63
2022-10-20T07:16:14.861Z,1017.63
2022-10-20T07:17:14.873Z,1017.64
2022-10-20T07:18:14.865Z,1017.51
2022-10-20T07:19:14.829Z,1017.48
2022-10-20T07:20:14.879Z,1017.38
2022-10-20T07:21:14.832Z,1017.34
2022-10-20T07:22:14.806Z,1017.33
2022-10-20T07:23:14.808Z,1017.17
2022-10-20T07:24:14.835Z,1017.15
2022-10-20T07:25:14.789Z,1017.14
2022-10-20T07:26:14.738Z,1017.08
2022-10-20T07:27:15.577Z,1017.10
2022-10-20T07:28:14.736Z,1017.06
2022-10-20T07:29:14.875Z,1017.09
2022-10-20T07:30:14.738Z,1017.02
2022-10-20T07:31:14.721Z,1017.05
2022-10-20T07:32:14.728Z,1017.13
2022-10-20T07:33:14.708Z,1017.19
2022-10-20T07:34:25.198Z,1017.11
2022-10-20T07:35:14.717Z,1017.11
2022-10-20T07:36:14.633Z,1016.97
2022-10-20T07:37:14.630Z,1016.96
2022-10-20T07:38:14.659Z,1017.04
2022-10-20T07:39:14.702Z,1017.03
2022-10-20T07:40:14.621Z,1017.02
2022-10-20T07:41:14.577Z,1017.02
2022-10-20T07:42:14.576Z,1016.95
2022-10-20T07:43:14.565Z,1016.92
2022-10-20T07:44:14.673Z,1016.91
2022-10-20T07:45:14.565Z,1016.95
2022-10-20T07:46:14.522Z,1016.94
2022-10-20T07:47:14.512Z,1016.84
2022-10-20T07:48:14.515Z,1016.86
2022-10-20T07:50:14.492Z,1016.90
2022-10-20T07:52:14.448Z,1016.92
2022-10-20T07:53:14.476Z,1016.91
2022-10-20T07:54:14.476Z,1016.95
2022-10-20T07:55:33.487Z,1016.89
2022-10-20T07:56:14.416Z,1016.83
2022-10-20T07:57:14.412Z,1016.88
2022-10-20T07:58:14.388Z,1016.88
2022-10-20T07:59:14.433Z,1016.85
2022-10-20T08:00:14.406Z,1016.89
2022-10-20T08:01:14.541Z,1016.83
2022-10-20T08:02:14.395Z,1016.89
2022-10-20T08:03:14.345Z,1016.89
2022-10-20T08:04:14.369Z,1016.74
2022-10-20T08:05:14.339Z,1016.85
2022-10-20T08:06:14.292Z,1016.83
2022-10-20T08:07:14.292Z,1016.78
2022-10-20T08:08:14.305Z,1016.71
2022-10-20T08:09:14.267Z,1016.69
2022-10-20T08:10:14.346Z,1016.78
2022-10-20T08:11:14.266Z,1016.68
2022-10-20T08:12:14.232Z,1016.88
2022-10-20T08:13:14.234Z,1016.80
2022-10-20T08:14:14.202Z,1016.86
2022-10-20T08:15:15.024Z,1016.86
2022-10-20T08:16:15.988Z,1016.76
2022-10-20T08:17:14.223Z,1016.80
2022-10-20T08:18:14.990Z,1016.78
2022-10-20T08:19:17.483Z,1016.77
2022-10-20T08:20:18.934Z,1016.78
2022-10-20T08:21:14.160Z,1016.71
2022-10-20T08:22:14.158Z,1016.77
2022-10-20T08:23:14.909Z,1016.65
2022-10-20T08:24:14.100Z,1016.75
2022-10-20T08:25:14.117Z,1016.69
2022-10-20T08:26:14.066Z,1016.67
2022-10-20T08:27:14.108Z,1016.67
2022-10-20T08:28:14.094Z,1016.65
2022-10-20T08:29:14.313Z,1016.64
2022-10-20T08:30:29.146Z,1016.63
2022-10-20T08:31:14.019Z,1016.57
2022-10-20T08:32:14.066Z,1016.63
2022-10-20T08:33:14.555Z,1016.59
2022-10-20T08:34:13.975Z,1016.69
2022-10-20T08:35:14.007Z,1016.65
2022-10-20T08:36:14.549Z,1016.72
2022-10-20T08:37:13.979Z,1016.74
2022-10-20T08:38:14.545Z,1016.82
2022-10-20T08:39:13.976Z,1016.71
2022-10-20T08:40:13.957Z,1016.72
2022-10-20T08:41:13.913Z,1016.75
2022-10-20T08:42:13.928Z,1016.70
2022-10-20T08:43:13.896Z,1016.73
2022-10-20T08:44:13.869Z,1016.72
2022-10-20T08:45:13.892Z,1016.65
2022-10-20T08:46:13.871Z,1016.63
2022-10-20T08:47:14.424Z,1016.59
2022-10-20T08:48:13.916Z,1016.53
2022-10-20T08:49:13.812Z,1016.54
2022-10-20T08:50:13.856Z,1016.49
2022-10-20T08:51:13.796Z,1016.45
2022-10-20T08:52:13.797Z,1016.44
2022-10-20T08:53:13.774Z,1016.40
2022-10-20T08:54:13.747Z,1016.38
2022-10-20T08:55:13.802Z,1016.33
2022-10-20T08:56:13.763Z,1016.29
2022-10-20T08:57:13.721Z,1016.24
2022-10-20T08:58:13.785Z,1016.27
2022-10-20T08:59:13.713Z,1016.27
2022-10-20T09:00:13.763Z,1016.21
2022-10-20T09:01:13.680Z,1016.25
2022-10-20T09:02:13.732Z,1016.18
2022-10-20T09:03:13.688Z,1016.11
2022-10-20T09:04:13.641Z,1016.09
2022-10-20T09:05:16.703Z,1015.98
2022-10-20T09:06:13.644Z,1016.07
2022-10-20T09:07:13.623Z,1016.01
2022-10-20T09:08:13.634Z,1015.97
2022-10-20T09:09:13.658Z,1015.98
2022-10-20T09:10:13.579Z,1015.97
2022-10-20T09:11:13.591Z,1015.92
2022-10-20T09:12:13.579Z,1015.88
2022-10-20T09:13:13.548Z,1015.84
2022-10-20T09:14:13.535Z,1015.84
2022-10-20T09:15:13.550Z,1015.85
2022-10-20T09:16:22.048Z,1015.89
2022-10-20T09:17:13.506Z,1015.86
2022-10-20T09:18:13.522Z,1015.90
2022-10-20T09:19:13.480Z,1015.87
2022-10-20T09:20:13.464Z,1015.85
2022-10-20T09:21:13.457Z,1015.77
2022-10-20T09:22:13.458Z,1015.83
2022-10-20T09:23:28.502Z,1015.80
2022-10-20T09:24:13.511Z,1015.62
2022-10-20T09:25:13.434Z,1015.64
2022-10-20T09:26:24.781Z,1015.67
2022-10-20T09:27:13.548Z,1015.59
2022-10-20T09:28:19.545Z,1015.56
2022-10-20T09:29:14.702Z,1015.59
2022-10-20T09:30:13.350Z,1015.56
2022-10-20T09:31:13.441Z,1015.55
2022-10-20T09:32:44.520Z,1015.56
2022-10-20T09:33:14.070Z,1015.57
2022-10-20T09:34:14.334Z,1015.59
2022-10-20T09:35:13.369Z,1015.54
2022-10-20T09:36:13.321Z,1015.58
2022-10-20T09:37:13.298Z,1015.54
2022-10-20T09:38:13.302Z,1015.51
2022-10-20T09:39:13.265Z,1015.57
2022-10-20T09:40:13.239Z,1015.55
2022-10-20T09:41:13.241Z,1015.57
2022-10-20T09:42:13.233Z,1015.46
2022-10-20T09:43:13.264Z,1015.38
2022-10-20T09:44:13.269Z,1015.35
2022-10-20T09:45:13.264Z,1015.35
2022-10-20T09:46:13.205Z,1015.29
2022-10-20T09:47:13.171Z,1015.33
2022-10-20T09:48:13.199Z,1015.29
2022-10-20T09:49:13.159Z,1015.36
2022-10-20T09:50:13.166Z,1015.28
2022-10-20T09:52:13.130Z,1015.32
2022-10-20T09:53:13.089Z,1015.28
2022-10-20T09:54:14.091Z,1015.23
2022-10-20T09:55:14.098Z,1015.23
2022-10-20T09:56:13.065Z,1015.18
2022-10-20T09:57:13.923Z,1015.07
2022-10-20T09:58:17.101Z,1014.98
2022-10-20T09:59:13.075Z,1014.96
2022-10-20T10:00:32.450Z,1014.99
2022-10-20T10:01:13.125Z,1014.94
2022-10-20T10:02:12.994Z,1014.96
2022-10-20T10:03:13.038Z,1015.00
2022-10-20T10:04:12.973Z,1015.01
2022-10-20T10:05:14.727Z,1014.99
2022-10-20T10:06:13.001Z,1015.00
2022-10-20T10:07:12.953Z,1015.02
2022-10-20T10:08:12.938Z,1015.07
2022-10-20T10:09:13.000Z,1015.09
2022-10-20T10:10:12.896Z,1015.08
2022-10-20T10:11:12.934Z,1015.09
2022-10-20T10:12:12.888Z,1015.14
2022-10-20T10:13:12.953Z,1015.18
2022-10-20T10:14:12.852Z,1015.19
2022-10-20T10:15:12.990Z,1015.19
2022-10-20T10:16:12.835Z,1015.18
2022-10-20T10:17:12.882Z,1015.14
2022-10-20T10:18:13.737Z,1015.19
2022-10-20T10:20:12.871Z,1015.17
2022-10-20T10:21:13.450Z,1015.12
2022-10-20T10:22:12.772Z,1015.09
2022-10-20T10:23:12.774Z,1015.06
2022-10-20T10:24:12.744Z,1015.00
2022-10-20T10:25:12.775Z,1015.02
2022-10-20T10:26:12.766Z,1014.97
2022-10-20T10:27:12.721Z,1014.95
2022-10-20T10:28:12.716Z,1014.96
2022-10-20T10:29:13.482Z,1014.87
2022-10-20T10:30:12.694Z,1014.87
2022-10-20T10:31:13.107Z,1014.88
2022-10-20T10:32:13.630Z,1014.86
2022-10-20T10:33:12.669Z,1014.83
2022-10-20T10:34:12.639Z,1014.80
2022-10-20T10:35:12.633Z,1014.76
2022-10-20T10:36:12.612Z,1014.70
2022-10-20T10:37:12.696Z,1014.70
2022-10-20T10:38:12.636Z,1014.63
2022-10-20T10:39:12.579Z,1014.63
2022-10-20T10:40:12.569Z,1014.63
2022-10-20T10:41:12.561Z,1014.53
2022-10-20T10:42:12.602Z,1014.47
2022-10-20T10:43:12.608Z,1014.39
2022-10-20T10:44:12.525Z,1014.29
2022-10-20T10:45:12.523Z,1014.34
2022-10-20T10:46:12.504Z,1014.38
2022-10-20T10:47:12.543Z,1014.31
2022-10-20T10:48:12.509Z,1014.32
2022-10-20T10:49:12.483Z,1014.37
2022-10-20T10:50:12.497Z,1014.39
2022-10-20T10:51:12.464Z,1014.29
2022-10-20T10:52:13.073Z,1014.25
2022-10-20T10:53:12.421Z,1014.20
2022-10-20T10:54:12.408Z,1014.18
2022-10-20T10:55:21.182Z,1014.24
2022-10-20T10:56:12.434Z,1014.17
2022-10-20T10:57:12.735Z,1014.21
2022-10-20T10:59:12.429Z,1014.16
2022-10-20T11:00:12.342Z,1014.19
2022-10-20T11:01:13.135Z,1014.20
2022-10-20T11:02:13.029Z,1014.26
2022-10-20T11:03:12.311Z,1014.18
2022-10-20T11:04:12.295Z,1014.12
2022-10-20T11:05:12.319Z,1014.14
2022-10-20T11:06:12.574Z,1014.12
2022-10-20T11:07:12.297Z,1014.13
2022-10-20T11:08:12.351Z,1014.18
2022-10-20T11:09:12.242Z,1014.15
2022-10-20T11:10:12.238Z,1014.20
2022-10-20T11:11:12.261Z,1014.20
2022-10-20T11:12:12.239Z,1014.27
2022-10-20T11:13:13.071Z,1014.20
2022-10-20T11:14:12.235Z,1014.15
2022-10-20T11:15:12.182Z,1014.06
2022-10-20T11:16:12.168Z,1014.04
2022-10-20T11:17:12.460Z,1014.03
2022-10-20T11:18:12.194Z,1014.04
2022-10-20T11:19:12.169Z,1014.05
2022-10-20T11:20:12.192Z,1014.00
2022-10-20T11:21:12.150Z,1013.96
2022-10-20T11:22:14.334Z,1013.95
2022-10-20T11:23:12.132Z,1013.99
2022-10-20T11:24:12.069Z,1014.00
2022-10-20T11:25:12.067Z,1014.00
2022-10-20T11:26:12.096Z,1013.86
2022-10-20T11:27:12.029Z,1013.88
2022-10-20T11:28:12.060Z,1013.94
2022-10-20T11:29:12.045Z,1013.88
2022-10-20T11:30:12.366Z,1013.97
2022-10-20T11:31:12.046Z,1013.96
2022-10-20T11:32:11.991Z,1013.87
2022-10-20T11:33:12.071Z,1013.82
2022-10-20T11:34:11.981Z,1013.81
2022-10-20T11:35:12.048Z,1013.79
2022-10-20T11:36:12.195Z,1013.80
2022-10-20T11:37:12.455Z,1013.73
2022-10-20T11:38:11.932Z,1013.66
2022-10-20T11:39:11.907Z,1013.61
2022-10-20T11:40:12.080Z,1013.56
2022-10-20T11:41:11.904Z,1013.54
2022-10-20T11:42:11.870Z,1013.51
2022-10-20T11:43:11.898Z,1013.49
2022-10-20T11:44:11.858Z,1013.51
2022-10-20T11:45:11.870Z,1013.46
2022-10-20T11:46:12.900Z,1013.45
2022-10-20T11:47:11.818Z,1013.36
2022-10-20T11:48:11.844Z,1013.34
2022-10-20T11:49:11.842Z,1013.32
2022-10-20T11:50:11.848Z,1013.34
2022-10-20T11:51:11.808Z,1013.32
2022-10-20T11:52:11.767Z,1013.32
2022-10-20T11:53:11.768Z,1013.30
2022-10-20T11:54:11.775Z,1013.25
2022-10-20T11:55:11.769Z,1013.28
2022-10-20T11:56:11.716Z,1013.33
2022-10-20T11:57:11.709Z,1013.24
2022-10-20T11:58:11.767Z,1013.30
2022-10-20T11:59:11.718Z,1013.28
2022-10-20T12:00:11.773Z,1013.27
2022-10-20T12:01:12.572Z,1013.33
2022-10-20T12:02:11.712Z,1013.39
2022-10-20T12:03:11.712Z,1013.39
2022-10-20T12:04:12.442Z,1013.41
2022-10-20T12:05:11.619Z,1013.42
2022-10-20T12:06:11.629Z,1013.40
2022-10-20T12:07:11.596Z,1013.51
2022-10-20T12:08:28.818Z,1013.48
2022-10-20T12:09:11.816Z,1013.41
2022-10-20T12:10:11.764Z,1013.38
2022-10-20T12:11:11.549Z,1013.29
2022-10-20T12:12:11.539Z,1013.26